createdAt,value
2018-12-22T00:00:41.776Z,52.40
2018-12-22T00:03:09.314Z,52.30
2018-12-22T00:05:36.881Z,52.50
2018-12-22T00:08:04.489Z,52.30
2018-12-22T00:10:32.078Z,52.50
2018-12-22T00:12:59.641Z,52.50
2018-12-22T00:15:27.320Z,52.40
2018-12-22T00:17:54.985Z,52.50
2018-12-22T00:20:22.601Z,52.50
2018-12-22T00:22:50.238Z,52.40
2018-12-22T00:25:17.804Z,52.70
2018-12-22T00:27:45.551Z,52.40
2018-12-22T00:30:13.435Z,52.40
2018-12-22T00:32:41.119Z,52.50
2018-12-22T00:35:08.688Z,52.50
2018-12-22T00:37:36.223Z,52.40
2018-12-22T00:40:04.726Z,52.80
2018-12-22T00:42:32.255Z,52.60
2018-12-22T00:44:59.838Z,52.50
2018-12-22T00:47:27.496Z,52.70
2018-12-22T00:49:55.002Z,53.00
2018-12-22T00:52:22.575Z,52.90
2018-12-22T00:54:50.094Z,52.70
2018-12-22T00:57:17.853Z,52.90
2018-12-22T00:59:45.422Z,52.90
2018-12-22T01:02:12.966Z,53.00
2018-12-22T01:04:40.490Z,53.20
2018-12-22T01:07:08.160Z,53.00
2018-12-22T01:09:35.718Z,53.00
2018-12-22T01:12:03.335Z,53.20
2018-12-22T01:14:30.993Z,53.20
2018-12-22T01:16:58.731Z,53.40
2018-12-22T01:19:26.348Z,53.20
2018-12-22T01:21:53.975Z,54.10
2018-12-22T01:24:21.678Z,53.60
2018-12-22T01:26:49.245Z,53.70
2018-12-22T01:29:16.762Z,53.90
2018-12-22T01:31:44.327Z,54.00
2018-12-22T01:34:11.846Z,54.00
2018-12-22T01:36:39.400Z,54.10
2018-12-22T01:39:06.969Z,54.40
2018-12-22T01:41:34.540Z,54.30
2018-12-22T01:44:02.061Z,54.80
2018-12-22T01:46:29.587Z,54.50
2018-12-22T01:48:57.152Z,55.60
2018-12-22T01:51:24.749Z,54.50
2018-12-22T01:53:52.359Z,54.90
2018-12-22T01:56:20.099Z,55.10
2018-12-22T01:58:47.931Z,55.40
2018-12-22T02:01:15.659Z,55.10
2018-12-22T02:03:43.241Z,55.30
2018-12-22T02:06:10.790Z,55.20
2018-12-22T02:08:38.432Z,55.40
2018-12-22T02:11:05.978Z,55.40
2018-12-22T02:13:33.562Z,55.70
2018-12-22T02:16:01.460Z,55.60
2018-12-22T02:18:29.025Z,55.60
2018-12-22T02:20:56.586Z,55.60
2018-12-22T02:23:24.158Z,55.70
2018-12-22T02:25:51.731Z,55.70
2018-12-22T02:28:19.338Z,55.70
2018-12-22T02:30:46.869Z,55.70
2018-12-22T02:33:14.610Z,55.80
2018-12-22T02:35:42.135Z,56.30
2018-12-22T02:38:09.699Z,56.30
2018-12-22T02:40:37.358Z,56.50
2018-12-22T02:43:04.918Z,56.90
2018-12-22T02:45:32.460Z,57.10
2018-12-22T02:48:00.203Z,57.90
2018-12-22T02:50:27.743Z,57.00
2018-12-22T02:52:55.537Z,57.00
2018-12-22T02:55:23.205Z,57.20
2018-12-22T02:57:50.882Z,57.10
2018-12-22T03:00:18.639Z,57.20
2018-12-22T03:02:46.185Z,57.30
2018-12-22T03:05:13.722Z,57.30
2018-12-22T03:07:41.273Z,57.50
2018-12-22T03:10:09.926Z,57.80
2018-12-22T03:12:37.497Z,57.40
2018-12-22T03:15:05.510Z,58.40
2018-12-22T03:17:33.351Z,57.50
2018-12-22T03:20:00.915Z,57.80
2018-12-22T03:22:28.664Z,57.90
2018-12-22T03:24:56.296Z,58.50
2018-12-22T03:27:23.815Z,58.50
2018-12-22T03:29:51.391Z,58.40
2018-12-22T03:32:19.024Z,58.30
2018-12-22T03:34:46.809Z,58.40
2018-12-22T03:37:14.435Z,58.20
2018-12-22T03:39:41.999Z,58.30
2018-12-22T03:42:10.509Z,58.30
2018-12-22T03:44:38.094Z,58.30
2018-12-22T03:47:05.651Z,58.50
2018-12-22T03:49:33.223Z,58.30
2018-12-22T03:52:00.758Z,58.40
2018-12-22T03:54:28.285Z,58.40
2018-12-22T03:56:56.102Z,58.20
2018-12-22T03:59:25.517Z,58.50
2018-12-22T04:01:53.081Z,58.30
2018-12-22T04:04:20.616Z,58.10
2018-12-22T04:06:48.179Z,58.20
2018-12-22T04:09:15.734Z,58.30
2018-12-22T04:11:43.359Z,58.30
2018-12-22T04:14:10.970Z,58.50
2018-12-22T04:16:38.524Z,58.60
2018-12-22T04:19:06.058Z,58.60
2018-12-22T04:21:33.693Z,58.30
2018-12-22T04:24:01.310Z,58.10
2018-12-22T04:26:28.895Z,58.40
2018-12-22T04:28:56.450Z,58.20
2018-12-22T04:31:23.975Z,58.50
2018-12-22T04:33:51.525Z,58.60
2018-12-22T04:36:19.235Z,58.90
2018-12-22T04:38:46.847Z,59.70
2018-12-22T04:41:14.386Z,58.90
2018-12-22T04:43:41.909Z,59.30
2018-12-22T04:46:09.470Z,59.20
2018-12-22T04:48:37.017Z,58.80
2018-12-22T04:51:04.586Z,59.00
2018-12-22T04:53:32.278Z,59.00
2018-12-22T04:55:59.839Z,58.90
2018-12-22T04:58:27.464Z,59.20
2018-12-22T05:00:55.038Z,58.90
2018-12-22T05:03:22.742Z,59.00
2018-12-22T05:05:50.296Z,58.70
2018-12-22T05:08:17.895Z,58.80
2018-12-22T05:10:45.435Z,58.90
2018-12-22T05:13:12.986Z,59.10
2018-12-22T05:15:40.540Z,59.00
2018-12-22T05:18:08.071Z,59.10
2018-12-22T05:20:35.614Z,59.40
2018-12-22T05:23:03.185Z,59.70
2018-12-22T05:25:30.786Z,59.20
2018-12-22T05:27:58.387Z,59.40
2018-12-22T05:30:26.004Z,60.00
2018-12-22T05:32:53.627Z,59.60
2018-12-22T05:35:21.166Z,59.80
2018-12-22T05:37:48.803Z,59.80
2018-12-22T05:40:17.292Z,60.00
2018-12-22T05:42:45.065Z,59.90
2018-12-22T05:45:12.724Z,60.10
2018-12-22T05:47:40.245Z,60.10
2018-12-22T05:50:07.851Z,60.00
2018-12-22T05:52:35.527Z,60.00
2018-12-22T05:55:03.236Z,60.00
2018-12-22T05:57:30.750Z,60.20
2018-12-22T06:00:00.769Z,60.10
2018-12-22T06:02:27.935Z,60.20
2018-12-22T06:04:55.619Z,60.30
2018-12-22T06:07:23.162Z,60.50
2018-12-22T06:09:50.826Z,60.00
2018-12-22T06:12:18.494Z,60.00
2018-12-22T06:14:46.029Z,59.90
2018-12-22T06:17:13.594Z,59.80
2018-12-22T06:19:41.277Z,59.70
2018-12-22T06:22:08.954Z,59.70
2018-12-22T06:24:36.466Z,60.00
2018-12-22T06:27:04.186Z,59.80
2018-12-22T06:29:31.707Z,59.90
2018-12-22T06:31:59.247Z,59.90
2018-12-22T06:34:26.914Z,59.80
2018-12-22T06:36:54.501Z,60.10
2018-12-22T06:39:22.062Z,59.90
2018-12-22T06:41:49.674Z,59.50
2018-12-22T06:44:17.177Z,59.30
2018-12-22T06:46:44.708Z,59.10
2018-12-22T06:49:12.284Z,59.20
2018-12-22T06:51:39.933Z,59.20
2018-12-22T06:54:07.469Z,59.20
2018-12-22T06:56:35.063Z,59.40
2018-12-22T06:59:02.729Z,59.70
2018-12-22T07:01:30.270Z,59.40
2018-12-22T07:03:57.830Z,59.40
2018-12-22T07:06:25.357Z,59.50
2018-12-22T07:08:52.903Z,59.30
2018-12-22T07:11:20.433Z,59.40
2018-12-22T07:13:47.970Z,58.90
2018-12-22T07:16:15.582Z,59.40
2018-12-22T07:18:43.160Z,59.40
2018-12-22T07:21:10.759Z,59.40
2018-12-22T07:23:38.305Z,59.20
2018-12-22T07:26:05.936Z,59.00
2018-12-22T07:28:33.535Z,59.40
2018-12-22T07:31:01.078Z,59.30
2018-12-22T07:33:28.620Z,59.00
2018-12-22T07:35:56.224Z,59.00
2018-12-22T07:38:23.798Z,59.00
2018-12-22T07:40:51.442Z,59.10
2018-12-22T07:43:18.970Z,59.30
2018-12-22T07:45:46.493Z,59.10
2018-12-22T07:48:14.036Z,59.30
2018-12-22T07:50:41.594Z,58.80
2018-12-22T07:53:09.153Z,59.00
2018-12-22T07:55:36.692Z,58.80
2018-12-22T07:58:04.309Z,58.70
2018-12-22T08:00:35.053Z,58.30
2018-12-22T08:03:01.450Z,57.80
2018-12-22T08:05:28.992Z,57.90
2018-12-22T08:07:56.710Z,57.90
2018-12-22T08:10:24.379Z,57.80
2018-12-22T08:12:51.946Z,57.60
2018-12-22T08:15:19.483Z,57.70
2018-12-22T08:17:47.073Z,57.70
2018-12-22T08:20:14.643Z,57.70
2018-12-22T08:22:42.219Z,57.60
2018-12-22T08:25:10.314Z,57.90
2018-12-22T08:27:37.922Z,57.60
2018-12-22T08:30:07.810Z,57.80
2018-12-22T08:32:35.508Z,58.20
2018-12-22T08:35:03.226Z,57.60
2018-12-22T08:37:30.859Z,57.40
2018-12-22T08:39:58.440Z,57.10
2018-12-22T08:42:25.974Z,57.60
2018-12-22T08:44:53.575Z,57.80
2018-12-22T08:47:21.096Z,57.10
2018-12-22T08:49:48.759Z,56.70
2018-12-22T08:52:16.302Z,56.90
2018-12-22T08:54:43.855Z,56.70
2018-12-22T08:57:11.404Z,57.00
2018-12-22T08:59:39.101Z,56.90
2018-12-22T09:02:06.636Z,57.00
2018-12-22T09:04:34.325Z,57.10
2018-12-22T09:07:01.850Z,57.00
2018-12-22T09:09:29.449Z,56.80
2018-12-22T09:11:57.145Z,56.70
2018-12-22T09:14:24.863Z,56.40
2018-12-22T09:16:52.447Z,56.80
2018-12-22T09:19:20.033Z,56.40
2018-12-22T09:21:47.594Z,56.60
2018-12-22T09:24:15.263Z,56.70
2018-12-22T09:26:42.960Z,56.50
2018-12-22T09:29:10.511Z,56.60
2018-12-22T09:31:38.070Z,56.20
2018-12-22T09:34:13.036Z,56.50
2018-12-22T09:36:35.234Z,56.50
2018-12-22T09:39:02.867Z,56.80
2018-12-22T09:41:30.527Z,57.00
2018-12-22T09:43:58.151Z,56.70
2018-12-22T09:46:26.048Z,56.70
2018-12-22T09:48:53.663Z,56.40
2018-12-22T09:51:21.219Z,56.30
2018-12-22T09:53:48.921Z,56.30
2018-12-22T09:56:16.493Z,56.30
2018-12-22T09:58:44.046Z,56.00
2018-12-22T10:01:11.769Z,55.70
2018-12-22T10:03:39.358Z,55.90
2018-12-22T10:06:06.898Z,56.00
2018-12-22T10:08:35.329Z,55.80
2018-12-22T10:11:02.893Z,55.80
2018-12-22T10:13:30.452Z,55.80
2018-12-22T10:15:58.058Z,56.10
2018-12-22T10:18:25.780Z,55.80
2018-12-22T10:20:53.293Z,55.90
2018-12-22T10:23:20.822Z,55.80
2018-12-22T10:25:48.416Z,55.60
2018-12-22T10:28:16.049Z,55.60
2018-12-22T10:30:43.586Z,55.60
2018-12-22T10:33:11.178Z,55.60
2018-12-22T10:35:38.743Z,55.60
2018-12-22T10:38:06.413Z,55.60
2018-12-22T10:40:33.949Z,55.60
2018-12-22T10:43:01.536Z,55.60
2018-12-22T10:45:29.071Z,55.60
2018-12-22T10:47:56.598Z,55.50
2018-12-22T10:50:24.227Z,55.70
2018-12-22T10:52:51.877Z,55.60
2018-12-22T10:55:19.506Z,55.40
2018-12-22T10:57:47.126Z,55.40
2018-12-22T11:00:14.705Z,55.40
2018-12-22T11:02:42.338Z,55.10
2018-12-22T11:05:10.776Z,54.90
2018-12-22T11:07:38.323Z,55.20
2018-12-22T11:10:09.763Z,55.30
2018-12-22T11:12:38.149Z,55.30
2018-12-22T11:15:07.749Z,55.70
2018-12-22T11:17:35.312Z,55.00
2018-12-22T11:20:04.290Z,55.10
2018-12-22T11:22:31.915Z,55.10
2018-12-22T11:25:00.259Z,54.90
2018-12-22T11:27:27.941Z,54.80
2018-12-22T11:29:55.510Z,55.00
2018-12-22T11:32:23.042Z,54.90
2018-12-22T11:34:50.558Z,54.80
2018-12-22T11:37:18.103Z,55.10
2018-12-22T11:39:45.682Z,54.90
2018-12-22T11:42:13.265Z,55.10
2018-12-22T11:44:40.822Z,55.30
2018-12-22T11:47:10.586Z,55.90
2018-12-22T11:49:38.118Z,55.20
2018-12-22T11:52:05.739Z,55.10
2018-12-22T11:54:33.302Z,54.70
2018-12-22T11:57:00.961Z,54.90
2018-12-22T11:59:28.522Z,54.80
2018-12-22T12:01:56.146Z,54.80
2018-12-22T12:04:23.954Z,55.00
2018-12-22T12:06:51.478Z,54.80
2018-12-22T12:09:19.033Z,54.90
2018-12-22T12:11:46.616Z,54.50
2018-12-22T12:14:14.164Z,54.50
2018-12-22T12:16:41.838Z,54.60
2018-12-22T12:19:12.783Z,54.50
2018-12-22T12:21:40.323Z,54.40
2018-12-22T12:24:07.885Z,54.50
2018-12-22T12:26:35.446Z,54.60
2018-12-22T12:29:03.667Z,54.60
2018-12-22T12:31:31.329Z,54.20
2018-12-22T12:33:58.844Z,55.00
2018-12-22T12:36:26.389Z,54.00
2018-12-22T12:38:53.950Z,54.20
2018-12-22T12:41:21.465Z,54.10
2018-12-22T12:43:49.148Z,53.50
2018-12-22T12:46:16.951Z,52.90
2018-12-22T12:48:44.480Z,52.90
2018-12-22T12:51:12.041Z,54.70
2018-12-22T12:53:39.641Z,55.30
2018-12-22T12:56:07.212Z,55.70
2018-12-22T12:58:34.875Z,56.30
2018-12-22T13:01:02.413Z,56.60
2018-12-22T13:03:29.993Z,56.80
2018-12-22T13:05:57.568Z,57.70
2018-12-22T13:08:25.163Z,57.90
2018-12-22T13:10:52.722Z,58.10
2018-12-22T13:13:34.756Z,57.80
2018-12-22T13:16:02.415Z,58.10
2018-12-22T13:18:30.163Z,58.20
2018-12-22T13:20:57.881Z,58.30
2018-12-22T13:23:25.445Z,58.30
2018-12-22T13:25:52.961Z,58.60
2018-12-22T13:28:20.517Z,58.30
2018-12-22T13:30:48.055Z,58.30
2018-12-22T13:33:15.847Z,58.70
2018-12-22T13:35:43.494Z,58.00
2018-12-22T13:38:11.054Z,57.80
2018-12-22T13:40:38.598Z,57.60
2018-12-22T13:43:06.127Z,57.90
2018-12-22T13:45:33.848Z,57.60
2018-12-22T13:48:01.397Z,57.70
2018-12-22T13:50:29.284Z,57.70
2018-12-22T13:52:56.793Z,57.60
2018-12-22T13:55:24.366Z,57.80
2018-12-22T13:57:52.915Z,57.70
2018-12-22T14:00:23.254Z,57.80
2018-12-22T14:02:50.823Z,57.50
2018-12-22T14:05:24.937Z,57.60
2018-12-22T14:07:52.485Z,57.30
2018-12-22T14:10:20.964Z,57.10
2018-12-22T14:12:48.502Z,56.90
2018-12-22T14:15:22.185Z,56.70
2018-12-22T14:21:06.747Z,56.50
2018-12-22T14:23:41.950Z,56.40
2018-12-22T14:26:09.477Z,56.40
2018-12-22T14:28:37.040Z,56.40
2018-12-22T14:31:04.555Z,56.60
2018-12-22T14:33:32.208Z,56.60
2018-12-22T14:35:59.872Z,56.40
2018-12-22T14:38:27.507Z,56.30
2018-12-22T14:40:55.057Z,56.70
2018-12-22T14:43:22.622Z,56.60
2018-12-22T14:45:50.183Z,56.90
2018-12-22T14:48:17.778Z,56.80
2018-12-22T14:50:45.331Z,56.80
2018-12-22T14:53:12.858Z,56.50
2018-12-22T14:55:40.367Z,56.70
2018-12-22T14:58:08.246Z,56.60
2018-12-22T15:00:35.883Z,56.60
2018-12-22T15:03:03.463Z,56.50
2018-12-22T15:05:31.018Z,56.40
2018-12-22T15:07:58.565Z,56.40
2018-12-22T15:10:26.427Z,56.30
2018-12-22T15:12:54.218Z,56.10
2018-12-22T15:15:21.982Z,56.20
2018-12-22T15:17:49.554Z,56.00
2018-12-22T15:20:29.743Z,56.10
2018-12-22T15:22:57.279Z,55.70
2018-12-22T15:25:24.914Z,55.70
2018-12-22T15:27:52.505Z,55.40
2018-12-22T15:30:20.086Z,56.40
2018-12-22T15:32:54.390Z,55.70
2018-12-22T15:35:17.174Z,55.50
2018-12-22T15:37:44.797Z,55.70
2018-12-22T15:40:12.324Z,55.60
2018-12-22T15:42:39.944Z,56.10
2018-12-22T15:45:14.552Z,56.30
2018-12-22T15:47:44.295Z,56.50
2018-12-22T15:50:20.338Z,57.20
2018-12-22T15:52:48.041Z,57.20
2018-12-22T15:55:15.624Z,56.80
2018-12-22T15:57:43.170Z,56.70
2018-12-22T16:00:13.067Z,56.90
2018-12-22T16:02:40.717Z,56.50
2018-12-22T16:05:10.932Z,56.40
2018-12-22T16:07:41.144Z,56.40
2018-12-22T16:10:12.117Z,56.60
2018-12-22T16:12:39.657Z,56.50
2018-12-22T16:15:11.307Z,56.30
2018-12-22T16:17:38.851Z,56.80
2018-12-22T16:20:09.631Z,57.00
2018-12-22T16:22:37.333Z,56.90
2018-12-22T16:25:11.617Z,57.00
2018-12-22T16:27:38.066Z,57.10
2018-12-22T16:30:11.478Z,56.80
2018-12-22T16:32:41.300Z,57.30
2018-12-22T16:35:08.564Z,57.10
2018-12-22T16:37:36.101Z,57.20
2018-12-22T16:40:06.578Z,57.20
2018-12-22T16:42:34.129Z,57.10
2018-12-22T16:45:01.696Z,57.40
2018-12-22T16:47:29.359Z,57.30
2018-12-22T16:49:56.991Z,57.50
2018-12-22T16:52:24.505Z,57.70
2018-12-22T16:54:52.126Z,57.50
2018-12-22T16:57:19.690Z,57.50
2018-12-22T16:59:47.275Z,57.70
2018-12-22T17:02:14.974Z,57.70
2018-12-22T17:04:42.590Z,57.70
2018-12-22T17:07:10.163Z,57.50
2018-12-22T17:09:37.706Z,57.10
2018-12-22T17:12:05.350Z,56.90
2018-12-22T17:14:32.882Z,57.20
2018-12-22T17:17:00.618Z,58.20
2018-12-22T17:19:28.183Z,57.60
2018-12-22T17:21:57.145Z,57.50
2018-12-22T17:24:24.787Z,57.70
2018-12-22T17:26:52.360Z,57.70
2018-12-22T17:29:19.971Z,57.80
2018-12-22T17:31:47.556Z,57.60
2018-12-22T17:34:15.300Z,57.20
2018-12-22T17:36:42.814Z,57.10
2018-12-22T17:39:11.357Z,57.20
2018-12-22T17:41:39.844Z,57.20
2018-12-22T17:44:07.403Z,57.40
2018-12-22T17:46:34.948Z,57.00
2018-12-22T17:49:02.524Z,57.10
2018-12-22T17:51:30.068Z,57.10
2018-12-22T17:53:57.630Z,57.20
2018-12-22T17:56:25.210Z,57.20
2018-12-22T17:58:52.887Z,57.20
2018-12-22T18:01:20.426Z,57.30
2018-12-22T18:03:48.138Z,57.20
2018-12-22T18:06:15.675Z,57.50
2018-12-22T18:08:43.471Z,57.50
2018-12-22T18:11:11.022Z,57.40
2018-12-22T18:13:38.571Z,57.50
2018-12-22T18:16:06.205Z,57.30
2018-12-22T18:18:33.741Z,57.60
2018-12-22T18:21:01.353Z,57.50
2018-12-22T18:23:28.884Z,57.70
2018-12-22T18:25:56.490Z,57.70
2018-12-22T18:28:24.999Z,57.80
2018-12-22T18:30:52.563Z,57.50
2018-12-22T18:33:20.119Z,57.80
2018-12-22T18:35:47.633Z,57.80
2018-12-22T18:38:15.187Z,57.80
2018-12-22T18:40:42.819Z,57.80
2018-12-22T18:43:10.399Z,57.70
2018-12-22T18:45:37.950Z,57.80
2018-12-22T18:48:05.499Z,57.60
2018-12-22T18:50:33.073Z,57.70
2018-12-22T18:53:00.614Z,57.70
2018-12-22T18:55:28.184Z,57.80
2018-12-22T18:57:55.768Z,57.50
2018-12-22T19:00:23.363Z,57.70
2018-12-22T19:02:51.135Z,57.60
2018-12-22T19:05:19.485Z,57.50
2018-12-22T19:07:47.214Z,57.70
2018-12-22T19:10:20.852Z,57.40
2018-12-22T19:12:48.394Z,57.50
2018-12-22T19:15:15.914Z,57.40
2018-12-22T19:17:43.542Z,57.80
2018-12-22T19:20:16.580Z,57.40
2018-12-22T19:22:44.119Z,57.50
2018-12-22T19:25:11.643Z,57.50
2018-12-22T19:27:39.487Z,57.70
2018-12-22T19:30:08.767Z,57.10
2018-12-22T19:32:36.364Z,57.60
2018-12-22T19:35:05.015Z,56.90
2018-12-22T19:37:32.581Z,57.20
2018-12-22T19:40:01.048Z,57.20
2018-12-22T19:42:28.573Z,57.20
2018-12-22T19:44:56.146Z,57.50
2018-12-22T19:47:23.694Z,57.40
2018-12-22T19:49:51.286Z,57.40
2018-12-22T19:52:18.824Z,57.20
2018-12-22T19:54:46.382Z,57.60
2018-12-22T19:57:13.916Z,57.30
2018-12-22T19:59:41.514Z,57.50
2018-12-22T20:02:09.382Z,57.50
2018-12-22T20:04:36.955Z,57.50
2018-12-22T20:07:04.530Z,57.50
2018-12-22T20:09:32.125Z,57.40
2018-12-22T20:12:00.891Z,57.50
2018-12-22T20:14:28.426Z,57.50
2018-12-22T20:16:56.040Z,57.20
2018-12-22T20:19:23.772Z,57.20
2018-12-22T20:21:51.335Z,57.40
2018-12-22T20:24:18.890Z,57.20
2018-12-22T20:26:46.437Z,57.40
2018-12-22T20:29:14.015Z,57.50
2018-12-22T20:31:41.640Z,57.30
2018-12-22T20:34:11.185Z,57.50
2018-12-22T20:36:38.742Z,57.20
2018-12-22T20:39:07.358Z,57.10
2018-12-22T20:41:34.965Z,56.70
2018-12-22T20:44:02.595Z,56.40
2018-12-22T20:46:30.288Z,56.90
2018-12-22T20:48:57.857Z,57.30
2018-12-22T20:51:25.376Z,56.30
2018-12-22T20:53:53.062Z,56.60
2018-12-22T20:56:20.582Z,56.20
2018-12-22T20:58:48.229Z,56.20
2018-12-22T21:01:15.812Z,56.20
2018-12-22T21:03:43.493Z,56.10
2018-12-22T21:06:15.089Z,56.00
2018-12-22T21:08:42.808Z,55.90
2018-12-22T21:11:11.631Z,55.90
2018-12-22T21:13:39.187Z,55.80
2018-12-22T21:16:06.755Z,55.90
2018-12-22T21:18:34.294Z,55.60
2018-12-22T21:21:01.826Z,55.70
2018-12-22T21:23:29.379Z,55.70
2018-12-22T21:25:56.930Z,56.10
2018-12-22T21:28:24.450Z,56.00
2018-12-22T21:30:52.013Z,56.00
2018-12-22T21:33:19.575Z,55.90
2018-12-22T21:35:53.196Z,55.80
2018-12-22T21:38:16.894Z,55.80
2018-12-22T21:40:44.478Z,56.30
2018-12-22T21:43:12.095Z,56.20
2018-12-22T21:45:39.648Z,56.50
2018-12-22T21:48:07.207Z,56.60
2018-12-22T21:50:34.755Z,56.70
2018-12-22T21:53:02.321Z,56.80
2018-12-22T21:55:29.855Z,56.80
2018-12-22T21:57:57.445Z,57.20
2018-12-22T22:00:25.025Z,57.40
2018-12-22T22:02:52.558Z,57.60
2018-12-22T22:05:20.142Z,57.40
2018-12-22T22:07:47.691Z,57.50
2018-12-22T22:10:15.269Z,57.40
2018-12-22T22:12:42.812Z,57.60
2018-12-22T22:15:10.524Z,57.50
2018-12-22T22:17:38.043Z,57.40
2018-12-22T22:20:05.744Z,57.20
2018-12-22T22:22:33.279Z,57.80
2018-12-22T22:25:00.812Z,57.60
2018-12-22T22:27:28.381Z,57.60
2018-12-22T22:29:55.978Z,57.60
2018-12-22T22:32:23.535Z,57.50
2018-12-22T22:34:51.097Z,57.20
2018-12-22T22:37:18.655Z,57.20
2018-12-22T22:39:46.246Z,56.60
2018-12-22T22:42:13.915Z,56.90
2018-12-22T22:44:41.470Z,56.90
2018-12-22T22:47:09.195Z,57.00
2018-12-22T22:49:36.733Z,56.90
2018-12-22T22:52:04.461Z,57.30
2018-12-22T22:54:32.029Z,57.10
2018-12-22T22:56:59.593Z,57.10
2018-12-22T22:59:27.422Z,57.20
2018-12-22T23:01:55.146Z,57.00
2018-12-22T23:04:22.915Z,57.30
2018-12-22T23:06:50.462Z,57.20
2018-12-22T23:09:19.055Z,57.20
2018-12-22T23:11:46.623Z,57.20
2018-12-22T23:14:14.194Z,57.30
2018-12-22T23:16:41.744Z,57.30
2018-12-22T23:19:10.013Z,57.40
2018-12-22T23:21:37.630Z,57.40
2018-12-22T23:24:05.186Z,57.40
2018-12-22T23:26:32.898Z,57.20
2018-12-22T23:29:00.598Z,57.20
2018-12-22T23:31:28.148Z,57.20
2018-12-22T23:33:55.695Z,57.30
2018-12-22T23:36:23.428Z,57.30
2018-12-22T23:38:50.988Z,57.20
2018-12-22T23:41:18.514Z,57.90
2018-12-22T23:43:46.206Z,57.30
2018-12-22T23:46:13.769Z,57.50
2018-12-22T23:48:41.300Z,57.20
2018-12-22T23:51:08.841Z,57.40
2018-12-22T23:53:36.378Z,57.60
2018-12-22T23:56:03.953Z,57.40
2018-12-22T23:58:31.490Z,57.50
